Crosslake, MN (56442)

1:49 AM CST on February 01, 2015 (GMT -0600)
APRSWXNET Pine River MN US | Change Station
CLOSE
Current Station
Personal Weather Station
Location: Jenkins, MN
Elevation: 1243 ft
Nearby Weather Stations

Elev 1243 ft 46.68 °N, 94.29 °W | Updated 46 minutes ago

Partly Cloudy
Partly Cloudy
3 °F
Feels Like 3 °F
N
0
Wind Variable Wind from NE
Gusts 6.0 mph

Today
High -- | Low -- °F
--% Chance of Precip.
Yesterday
High -- | Low -- °F
Precip. -- in
7:40 AM 5:19 PM
Waxing Gibbous, 94% visible
Pressure 30.36 in
Visibility 10.0 miles
Clouds Mostly Cloudy 2700 ft
Windchill 3 °F
Dew Point -7 °F
Humidity 63%
Rainfall 0.00 in
Snow Depth Not available.
UV 0 out of 12
Pollen .10 out of 12
Air Quality Not available.
Flu Activity Not available.
METAR KPWC 010734Z AUTO 02007KT 10SM BKN027 M17/M22 A3036 RMK AO2

More Conditions Fewer Conditions

Pressure 30.36 in
Visibility 10.0 miles
Clouds Mostly Cloudy 2700 ft
Windchill 3 °F
Dew Point -7 °F
Humidity 63%
Rainfall 0.00 in
Snow Depth Not available.
UV 0 out of 12
Pollen .10 out of 12
Air Quality Not available.
Flu Activity Not available.
METAR KPWC 010734Z AUTO 02007KT 10SM BKN027 M17/M22 A3036 RMK AO2

More Conditions Fewer Conditions

10-Day Weather Forecast

Almanac

Astronomy

Feb. 01, 2015 Rise Set
Actual Time
Civil Twilight
Nautical Twilight
Astronomical Twilight
Moon
Length of Visible Light
Length of Day
Tomorrow will be .
, % of the Moon is Illuminated

Today's Extremes

State Highs State Lows

Community

WunderPhotos

Upload Photos

1,792,327 photos uploaded!

WunderBlogs® & News

Nearby

Air Quality

  Air Quality AQ Index Pollutant
Not available.

Snow Depth

Station Depth Elevation

Earthquake Activity

City Distance Mag. Time & Date
Minimum magnitude displayed is 2.5.

Coastal Water Temperatures

Place Temperature

Nearby Weather Stations